Time;durP1;ratioP1;P1;durP2;ratioP2;P2;SDS_P1;SDS_P2;PMS_P1;PMS_P2;Temp;Humidity;BMP_temperature;BMP_pressure;BME280_temperature;BME280_humidity;BME280_pressure;Samples;Min_cycle;Max_cycle;Signal;HPM_P1;HPM_P2
2024/01/31 00:01:04;;;;;;;56.83;29.08;;;;;;;-1.09;100.00;98319.72;4993722;28;20046;-69
2024/01/31 00:03:30;;;;;;;49.65;28.23;;;;;;;-1.01;100.00;98320.09;4999239;28;20064;-69
2024/01/31 00:05:55;;;;;;;50.15;27.25;;;;;;;-1.05;100.00;98313.56;5000005;28;20153;-69
2024/01/31 00:08:21;;;;;;;52.47;27.42;;;;;;;-0.99;100.00;98320.66;4996037;28;20948;-70
2024/01/31 00:10:46;;;;;;;51.38;26.73;;;;;;;-1.03;100.00;98319.50;4998725;28;20046;-69
2024/01/31 00:13:11;;;;;;;53.40;28.60;;;;;;;-1.06;100.00;98328.09;4994671;28;20141;-70
2024/01/31 00:15:37;;;;;;;43.95;25.30;;;;;;;-0.91;100.00;98319.38;5000215;28;20073;-70
2024/01/31 00:18:02;;;;;;;41.85;25.17;;;;;;;-0.80;100.00;98323.00;4996976;28;20050;-73
2024/01/31 00:20:30;;;;;;;46.35;25.20;;;;;;;-0.78;100.00;98318.16;5001511;28;20057;-73
2024/01/31 00:22:55;;;;;;;41.90;25.20;;;;;;;-0.78;100.00;98323.53;5004490;28;20045;-70
2024/01/31 00:25:21;;;;;;;48.58;25.42;;;;;;;-0.81;100.00;98324.88;5011116;28;20766;-68
2024/01/31 00:27:47;;;;;;;44.00;25.63;;;;;;;-0.80;100.00;98326.50;5000605;28;20041;-68
2024/01/31 00:30:12;;;;;;;45.60;25.33;;;;;;;-0.70;100.00;98330.34;4995522;28;20145;-71
2024/01/31 00:32:38;;;;;;;40.38;24.70;;;;;;;-0.65;100.00;98325.03;5002286;28;20592;-70
2024/01/31 00:35:04;;;;;;;40.67;24.13;;;;;;;-0.61;100.00;98326.16;4998927;28;20125;-71
2024/01/31 00:37:29;;;;;;;42.17;24.90;;;;;;;-0.69;100.00;98321.22;5008470;28;20050;-69
2024/01/31 00:39:55;;;;;;;41.40;24.52;;;;;;;-0.75;100.00;98319.56;5008595;28;20046;-70
2024/01/31 00:42:20;;;;;;;36.47;22.92;;;;;;;-0.69;100.00;98322.03;4998175;28;20434;-70
2024/01/31 00:44:45;;;;;;;39.65;23.30;;;;;;;-0.67;100.00;98322.59;4999145;28;20514;-70
2024/01/31 00:47:11;;;;;;;45.78;26.90;;;;;;;-0.85;100.00;98322.94;4995841;28;20502;-70
2024/01/31 00:49:37;;;;;;;44.17;25.05;;;;;;;-0.93;100.00;98320.72;5000384;28;20057;-70
2024/01/31 00:52:03;;;;;;;42.78;25.60;;;;;;;-1.04;100.00;98323.28;4996107;28;20053;-71
2024/01/31 00:54:28;;;;;;;44.55;25.15;;;;;;;-1.08;100.00;98324.84;5000360;28;20377;-72
2024/01/31 00:56:53;;;;;;;43.95;25.85;;;;;;;-1.09;100.00;98325.09;5009274;28;20042;-70
2024/01/31 00:59:20;;;;;;;46.28;25.55;;;;;;;-1.12;100.00;98322.91;4999394;28;20034;-69
2024/01/31 01:01:45;;;;;;;47.17;26.90;;;;;;;-1.20;100.00;98319.59;4999047;28;20095;-69
2024/01/31 01:04:11;;;;;;;44.80;27.25;;;;;;;-1.20;100.00;98322.28;4995504;28;20133;-70
2024/01/31 01:06:39;;;;;;;42.33;25.60;;;;;;;-1.15;100.00;98324.22;4999367;28;20049;-69
2024/01/31 01:09:04;;;;;;;48.28;28.48;;;;;;;-1.08;100.00;98326.69;4995716;28;20523;-70
2024/01/31 01:11:30;;;;;;;45.63;27.17;;;;;;;-1.09;100.00;98327.78;4999345;28;20143;-69
2024/01/31 01:13:55;;;;;;;51.22;28.63;;;;;;;-1.04;100.00;98327.84;4999357;28;20056;-69
2024/01/31 01:16:20;;;;;;;50.92;29.17;;;;;;;-1.00;100.00;98321.69;4994951;28;20100;-69
2024/01/31 01:18:46;;;;;;;48.08;29.08;;;;;;;-0.95;100.00;98310.19;4999625;28;20050;-69
2024/01/31 01:21:11;;;;;;;49.42;28.92;;;;;;;-0.91;100.00;98316.69;4993724;28;20056;-69
2024/01/31 01:23:36;;;;;;;47.85;27.17;;;;;;;-0.81;100.00;98326.75;5001904;28;20042;-69
2024/01/31 01:26:02;;;;;;;47.22;28.05;;;;;;;-0.65;100.00;98325.84;4998548;28;20038;-69
2024/01/31 01:28:28;;;;;;;44.35;26.42;;;;;;;-0.48;100.00;98323.03;4998676;28;20104;-69
2024/01/31 01:30:53;;;;;;;43.58;25.90;;;;;;;-0.44;100.00;98310.69;4999316;28;20403;-70
2024/01/31 01:33:18;;;;;;;40.03;25.20;;;;;;;-0.39;100.00;98308.06;4994412;28;20034;-70
2024/01/31 01:35:44;;;;;;;46.05;25.35;;;;;;;-0.37;100.00;98318.56;4999783;28;20038;-70
2024/01/31 01:38:09;;;;;;;40.88;24.70;;;;;;;-0.45;100.00;98319.03;4994460;28;20114;-69
2024/01/31 01:40:34;;;;;;;45.63;23.83;;;;;;;-0.47;100.00;98323.84;4999082;28;20121;-69
2024/01/31 01:43:00;;;;;;;42.60;24.98;;;;;;;-0.43;100.00;98319.59;4999864;28;20499;-69
2024/01/31 01:45:29;;;;;;;42.60;25.23;;;;;;;-0.50;100.00;98319.00;4996320;28;20058;-69
2024/01/31 01:47:54;;;;;;;39.63;24.40;;;;;;;-0.44;100.00;98316.06;4999085;28;20050;-69
2024/01/31 01:50:20;;;;;;;36.03;23.20;;;;;;;-0.41;100.00;98315.56;4992872;28;20488;-69
2024/01/31 01:52:46;;;;;;;34.22;22.67;;;;;;;-0.34;100.00;98315.38;4999257;28;20133;-69
2024/01/31 01:55:12;;;;;;;37.88;22.73;;;;;;;-0.29;100.00;98314.59;4994564;28;20400;-70
2024/01/31 01:57:38;;;;;;;33.80;21.95;;;;;;;-0.30;100.00;98311.09;5011981;28;20054;-69
2024/01/31 02:00:05;;;;;;;33.25;21.40;;;;;;;-0.28;100.00;98319.72;4995258;28;20050;-71
2024/01/31 02:02:31;;;;;;;33.00;20.90;;;;;;;-0.39;100.00;98307.25;4997610;28;20045;-70
2024/01/31 02:04:58;;;;;;;36.17;22.42;;;;;;;-0.62;100.00;98303.00;4998530;28;20046;-71
2024/01/31 02:07:27;;;;;;;35.95;21.42;;;;;;;-0.85;100.00;98294.16;4995122;28;20173;-70
2024/01/31 02:09:55;;;;;;;35.28;22.00;;;;;;;-0.69;100.00;98302.38;5000234;28;20180;-68
2024/01/31 02:12:21;;;;;;;35.17;21.55;;;;;;;-0.65;100.00;98304.31;5003096;28;20061;-70
2024/01/31 02:14:47;;;;;;;33.25;20.92;;;;;;;-0.65;100.00;98300.81;4999696;28;20037;-70
2024/01/31 02:17:13;;;;;;;34.55;21.25;;;;;;;-0.67;100.00;98306.44;4993811;28;20034;-70
2024/01/31 02:19:39;;;;;;;34.15;21.02;;;;;;;-0.67;100.00;98305.63;5001450;28;20557;-70
2024/01/31 02:22:07;;;;;;;32.83;19.42;;;;;;;-0.68;100.00;98299.44;4997985;28;20038;-70
2024/01/31 02:24:32;;;;;;;33.50;20.92;;;;;;;-0.63;100.00;98304.03;5003253;28;20038;-70
2024/01/31 02:26:57;;;;;;;34.63;20.45;;;;;;;-0.63;100.00;98310.25;4987032;28;20118;-70
2024/01/31 02:29:23;;;;;;;31.42;20.40;;;;;;;-0.52;100.00;98302.25;4998429;28;20120;-67
2024/01/31 02:31:48;;;;;;;33.72;19.83;;;;;;;-0.62;100.00;98301.09;5002595;28;20046;-70
2024/01/31 02:34:14;;;;;;;42.63;23.13;;;;;;;-0.71;100.00;98299.94;4998737;28;20099;-70
2024/01/31 02:36:39;;;;;;;37.28;21.95;;;;;;;-0.75;100.00;98306.91;5003056;28;20116;-69
2024/01/31 02:39:04;;;;;;;35.78;21.48;;;;;;;-0.70;100.00;98306.13;5005983;28;20138;-70
2024/01/31 02:41:30;;;;;;;34.50;20.13;;;;;;;-0.63;100.00;98312.97;5004202;28;20112;-70
2024/01/31 02:43:55;;;;;;;30.70;19.38;;;;;;;-0.64;100.00;98305.13;5002724;28;20099;-69
2024/01/31 02:46:20;;;;;;;32.22;19.45;;;;;;;-0.68;100.00;98307.53;4997223;28;20056;-71
2024/01/31 02:48:46;;;;;;;30.75;20.15;;;;;;;-0.60;100.00;98308.94;5002294;28;20046;-70
2024/01/31 02:51:11;;;;;;;29.63;19.17;;;;;;;-0.58;100.00;98304.09;5006643;28;20401;-70
2024/01/31 02:53:37;;;;;;;34.15;21.02;;;;;;;-0.56;100.00;98304.66;5011182;28;20426;-70
2024/01/31 02:56:03;;;;;;;30.55;20.08;;;;;;;-0.62;100.00;98316.44;4999721;28;20077;-71
2024/01/31 02:58:28;;;;;;;31.13;19.67;;;;;;;-0.56;100.00;98318.13;5016659;28;20381;-70
2024/01/31 03:00:53;;;;;;;30.02;19.52;;;;;;;-0.48;100.00;98309.59;5010901;28;20052;-70
2024/01/31 03:03:19;;;;;;;30.20;18.95;;;;;;;-0.45;100.00;98303.69;4997584;28;20038;-71
2024/01/31 03:05:44;;;;;;;29.40;18.65;;;;;;;-0.51;100.00;98311.97;5001379;28;20046;-70
2024/01/31 03:08:09;;;;;;;31.85;18.63;;;;;;;-0.49;100.00;98301.75;4995043;28;20044;-70
2024/01/31 03:10:35;;;;;;;31.98;19.58;;;;;;;-0.54;100.00;98305.25;5002144;28;20133;-70
2024/01/31 03:13:00;;;;;;;30.33;18.92;;;;;;;-0.45;100.00;98310.94;5002697;28;20038;-69
2024/01/31 03:15:26;;;;;;;29.77;18.55;;;;;;;-0.42;100.00;98303.16;4997874;28;20483;-69
2024/01/31 03:17:51;;;;;;;35.50;20.05;;;;;;;-0.49;100.00;98302.56;5003879;28;20505;-70
2024/01/31 03:20:16;;;;;;;32.15;20.15;;;;;;;-0.58;100.00;98301.41;4998137;28;20030;-70
2024/01/31 03:22:42;;;;;;;30.52;18.80;;;;;;;-0.56;100.00;98306.53;5000457;28;20037;-70
2024/01/31 03:25:07;;;;;;;32.08;19.65;;;;;;;-0.51;100.00;98304.72;4996287;28;20610;-70
2024/01/31 03:27:33;;;;;;;30.10;19.50;;;;;;;-0.53;100.00;98306.03;5001968;28;20054;-70
2024/01/31 03:30:01;;;;;;;28.48;17.92;;;;;;;-0.50;100.00;98300.16;5012653;28;20138;-69
2024/01/31 03:32:31;;;;;;;27.70;18.17;;;;;;;-0.62;100.00;98303.00;5000364;28;20038;-68
2024/01/31 03:34:56;;;;;;;30.13;18.40;;;;;;;-0.74;100.00;98302.31;5002268;28;20045;-67
2024/01/31 03:37:22;;;;;;;30.58;18.48;;;;;;;-0.67;100.00;98311.00;4992067;28;20591;-68
2024/01/31 03:39:47;;;;;;;27.77;17.63;;;;;;;-0.69;100.00;98310.47;5001486;28;20057;-68
2024/01/31 03:42:12;;;;;;;27.33;17.98;;;;;;;-0.71;100.00;98302.63;4996700;28;20496;-68
2024/01/31 03:44:38;;;;;;;29.05;18.05;;;;;;;-0.69;100.00;98310.47;5001742;28;20523;-71
2024/01/31 03:47:03;;;;;;;29.25;17.92;;;;;;;-0.68;100.00;98318.28;4997381;28;20053;-70
2024/01/31 03:49:29;;;;;;;27.70;17.73;;;;;;;-0.72;100.00;98316.34;5001015;28;20053;-68
2024/01/31 03:51:54;;;;;;;32.03;19.25;;;;;;;-0.74;100.00;98321.16;5000895;28;20060;-68
2024/01/31 03:54:19;;;;;;;28.48;18.98;;;;;;;-0.78;100.00;98318.16;4996437;28;20131;-68
2024/01/31 03:56:45;;;;;;;28.73;18.33;;;;;;;-0.84;100.00;98324.56;5003623;28;20127;-69
2024/01/31 03:59:10;;;;;;;29.15;19.20;;;;;;;-0.97;100.00;98321.19;5000173;28;20045;-68
2024/01/31 04:01:35;;;;;;;31.77;18.92;;;;;;;-1.03;100.00;98313.31;5002085;28;20048;-69
2024/01/31 04:04:01;;;;;;;33.35;19.88;;;;;;;-1.07;100.00;98322.97;4999969;28;20555;-72
2024/01/31 04:06:26;;;;;;;32.88;19.20;;;;;;;-1.12;100.00;98318.31;4997885;28;20042;-68
2024/01/31 04:08:53;;;;;;;33.13;19.27;;;;;;;-1.09;100.00;98320.53;5000300;28;20560;-68
2024/01/31 04:11:18;;;;;;;30.13;18.50;;;;;;;-1.09;100.00;98325.09;4994343;28;20136;-67
2024/01/31 04:13:44;;;;;;;27.33;18.08;;;;;;;-1.00;100.00;98329.75;5001299;28;20038;-67
2024/01/31 04:16:15;;;;;;;31.52;19.08;;;;;;;-1.09;100.00;98322.41;4994906;28;20111;-68
2024/01/31 04:18:40;;;;;;;30.98;19.75;;;;;;;-1.21;100.00;98334.06;5001152;28;20046;-68
2024/01/31 04:21:05;;;;;;;32.15;19.27;;;;;;;-1.31;100.00;98336.66;4996435;28;20120;-68
2024/01/31 04:23:31;;;;;;;30.15;18.83;;;;;;;-1.29;100.00;98331.84;5001451;28;20500;-72
2024/01/31 04:25:56;;;;;;;33.90;20.42;;;;;;;-1.30;100.00;98330.19;4999948;28;20073;-70
2024/01/31 04:28:23;;;;;;;29.02;18.80;;;;;;;-1.31;100.00;98325.91;4995225;28;20077;-71
2024/01/31 04:30:49;;;;;;;31.88;19.77;;;;;;;-1.20;100.00;98322.28;4984298;28;20042;-69
2024/01/31 04:33:14;;;;;;;31.92;19.10;;;;;;;-1.19;100.00;98323.91;4999418;28;20046;-70
2024/01/31 04:35:40;;;;;;;30.83;19.58;;;;;;;-1.27;100.00;98332.41;5006879;28;20065;-68
2024/01/31 04:38:05;;;;;;;30.30;19.50;;;;;;;-1.36;100.00;98328.53;4997686;28;20052;-71
2024/01/31 04:40:31;;;;;;;34.53;19.98;;;;;;;-1.32;100.00;98329.66;4999225;28;20676;-70
2024/01/31 04:42:56;;;;;;;29.90;19.45;;;;;;;-1.33;100.00;98329.88;5000258;28;20046;-70
2024/01/31 04:45:22;;;;;;;29.08;19.52;;;;;;;-1.39;100.00;98329.84;4995870;28;20038;-70
2024/01/31 04:47:47;;;;;;;31.38;18.92;;;;;;;-1.40;100.00;98327.41;5007187;28;20061;-71
2024/01/31 04:50:13;;;;;;;33.78;20.33;;;;;;;-1.46;100.00;98326.53;5002526;28;20501;-70
2024/01/31 04:52:38;;;;;;;30.63;18.00;;;;;;;-1.51;100.00;98331.81;5006260;28;20133;-70
2024/01/31 04:55:04;;;;;;;32.88;18.63;;;;;;;-1.44;100.00;98328.94;4995895;28;20037;-71
2024/01/31 04:57:31;;;;;;;30.63;18.60;;;;;;;-1.36;100.00;98332.00;5004868;28;20038;-71
2024/01/31 04:59:56;;;;;;;32.45;20.13;;;;;;;-1.28;100.00;98330.75;5005619;28;20384;-70
2024/01/31 05:02:22;;;;;;;38.50;21.42;;;;;;;-1.20;100.00;98332.22;4995559;28;20046;-69
2024/01/31 05:04:47;;;;;;;34.63;19.98;;;;;;;-1.26;100.00;98325.13;5000329;28;20074;-70
2024/01/31 05:07:12;;;;;;;35.28;20.70;;;;;;;-1.37;100.00;98325.03;4993825;28;20652;-70
2024/01/31 05:09:38;;;;;;;34.90;20.10;;;;;;;-1.42;100.00;98334.91;4997790;28;20057;-70
2024/01/31 05:12:04;;;;;;;33.13;19.75;;;;;;;-1.51;100.00;98334.53;4994818;28;20046;-71
2024/01/31 05:14:29;;;;;;;34.17;19.65;;;;;;;-1.50;100.00;98333.44;4999496;28;20046;-70
2024/01/31 05:16:54;;;;;;;28.25;18.45;;;;;;;-1.43;100.00;98338.63;4998817;28;20144;-70
2024/01/31 05:19:20;;;;;;;30.63;19.58;;;;;;;-1.39;100.00;98334.38;4996125;28;20216;-69
2024/01/31 05:21:49;;;;;;;32.20;19.63;;;;;;;-1.42;100.00;98337.59;4999291;28;20080;-70
2024/01/31 05:24:15;;;;;;;40.72;24.40;;;;;;;-1.50;100.00;98333.44;4995327;28;20065;-69
2024/01/31 05:26:43;;;;;;;34.58;22.08;;;;;;;-1.56;100.00;98327.19;4999655;28;20048;-69
2024/01/31 05:29:08;;;;;;;36.10;19.95;;;;;;;-1.60;100.00;98320.69;4995242;28;20042;-70
2024/01/31 05:31:34;;;;;;;32.15;19.95;;;;;;;-1.70;100.00;98328.59;4999562;28;20049;-70
2024/01/31 05:33:59;;;;;;;29.95;19.17;;;;;;;-1.82;100.00;98334.09;5001081;28;20050;-70
2024/01/31 05:36:24;;;;;;;33.85;19.90;;;;;;;-1.87;100.00;98336.69;4996003;28;20118;-69
2024/01/31 05:38:50;;;;;;;31.40;19.83;;;;;;;-1.96;100.00;98338.97;5000337;28;20436;-70
2024/01/31 05:41:15;;;;;;;31.48;19.77;;;;;;;-2.01;100.00;98346.13;4995678;28;20030;-69
2024/01/31 05:43:41;;;;;;;36.33;21.58;;;;;;;-2.02;100.00;98350.66;4999073;28;20046;-69
2024/01/31 05:46:06;;;;;;;35.72;21.10;;;;;;;-2.05;100.00;98348.50;4995348;28;20069;-69
2024/01/31 05:48:31;;;;;;;37.55;21.63;;;;;;;-2.09;100.00;98347.34;5000829;28;20095;-69
2024/01/31 05:50:57;;;;;;;39.25;22.52;;;;;;;-2.11;100.00;98349.44;4997479;28;20046;-70
2024/01/31 05:53:22;;;;;;;39.38;22.45;;;;;;;-2.12;100.00;98356.69;4995179;28;21047;-69
2024/01/31 05:55:47;;;;;;;35.17;21.13;;;;;;;-2.15;100.00;98364.44;5003051;28;20049;-69
2024/01/31 05:58:13;;;;;;;40.58;21.30;;;;;;;-2.19;100.00;98361.41;5015570;28;20042;-69
2024/01/31 06:00:38;;;;;;;38.88;22.58;;;;;;;-2.18;100.00;98363.06;5006781;28;20515;-68
2024/01/31 06:03:04;;;;;;;36.70;21.13;;;;;;;-2.21;100.00;98362.72;4996766;28;20045;-68
2024/01/31 06:05:29;;;;;;;36.70;21.95;;;;;;;-2.24;100.00;98376.63;5001176;28;20045;-69
2024/01/31 06:07:55;;;;;;;37.65;22.10;;;;;;;-2.23;100.00;98372.88;5002385;28;20042;-69
2024/01/31 06:10:21;;;;;;;36.67;21.70;;;;;;;-2.22;100.00;98382.56;4999836;28;20514;-69
2024/01/31 06:12:46;;;;;;;38.08;21.52;;;;;;;-2.19;100.00;98380.22;5001516;28;20042;-71
2024/01/31 06:15:12;;;;;;;30.60;20.10;;;;;;;-1.98;100.00;98394.78;4997206;28;20037;-69
2024/01/31 06:17:38;;;;;;;38.88;20.85;;;;;;;-1.83;100.00;98388.03;5000391;28;20052;-68
2024/01/31 06:20:04;;;;;;;32.13;19.20;;;;;;;-1.78;100.00;98388.13;4997648;28;20103;-69
2024/01/31 06:22:30;;;;;;;37.70;21.98;;;;;;;-1.87;100.00;98378.81;5001751;28;20699;-68
2024/01/31 06:24:55;;;;;;;32.38;20.27;;;;;;;-1.95;100.00;98380.84;5002624;28;20084;-71
2024/01/31 06:27:21;;;;;;;32.38;18.92;;;;;;;-1.98;100.00;98377.84;4999146;28;20137;-68
2024/01/31 06:29:46;;;;;;;31.30;18.95;;;;;;;-1.88;100.00;98385.28;5004974;28;20042;-71
2024/01/31 06:32:12;;;;;;;30.42;19.77;;;;;;;-1.80;100.00;98387.53;4998415;28;20137;-68
2024/01/31 06:34:37;;;;;;;33.47;19.80;;;;;;;-1.67;100.00;98389.91;5003822;28;20045;-70
2024/01/31 06:37:03;;;;;;;35.55;20.13;;;;;;;-1.49;100.00;98396.09;4998530;28;20096;-72
2024/01/31 06:39:28;;;;;;;33.42;20.30;;;;;;;-1.38;100.00;98393.28;5002767;28;20042;-70
2024/01/31 06:41:53;;;;;;;31.42;19.75;;;;;;;-1.25;100.00;98402.88;5000530;28;20049;-70
2024/01/31 06:44:19;;;;;;;32.58;19.05;;;;;;;-1.24;100.00;98393.75;4999036;28;20589;-68
2024/01/31 06:46:47;;;;;;;32.47;18.55;;;;;;;-1.26;100.00;98401.25;5002246;28;20042;-70
2024/01/31 06:49:14;;;;;;;30.98;19.65;;;;;;;-1.36;100.00;98406.47;4997113;28;20037;-70
2024/01/31 06:51:39;;;;;;;32.80;18.70;;;;;;;-1.46;100.00;98406.31;5001850;28;20057;-70
2024/01/31 06:54:04;;;;;;;35.90;19.35;;;;;;;-1.60;100.00;98405.88;5001012;28;20484;-71
2024/01/31 06:56:30;;;;;;;31.45;18.58;;;;;;;-1.65;100.00;98403.91;5014831;28;20042;-70
2024/01/31 06:58:56;;;;;;;35.88;20.90;;;;;;;-1.68;100.00;98411.63;5014602;28;20038;-70
2024/01/31 07:01:22;;;;;;;32.63;17.63;;;;;;;-1.76;100.00;98405.63;4998828;28;20038;-70
2024/01/31 07:03:47;;;;;;;35.95;20.67;;;;;;;-1.80;100.00;98409.03;5001769;28;20695;-70
2024/01/31 07:06:15;;;;;;;37.95;21.00;;;;;;;-1.79;100.00;98416.84;4996494;28;20100;-70
2024/01/31 07:08:41;;;;;;;33.00;20.00;;;;;;;-1.68;100.00;98409.75;5002887;28;20045;-70
2024/01/31 07:11:10;;;;;;;34.00;20.40;;;;;;;-1.52;100.00;98418.06;4997825;28;20057;-70
2024/01/31 07:13:35;;;;;;;37.33;20.77;;;;;;;-1.43;100.00;98413.91;5002213;28;20057;-70
2024/01/31 07:16:07;;;;;;;33.53;19.95;;;;;;;-1.41;100.00;98417.16;5000347;28;20046;-70
2024/01/31 07:18:32;;;;;;;44.95;22.65;;;;;;;-1.47;100.00;98428.91;5002055;28;20052;-69
2024/01/31 07:20:58;;;;;;;45.97;21.80;;;;;;;-1.44;100.00;98426.53;5002565;28;20129;-69
2024/01/31 07:23:23;;;;;;;33.38;20.15;;;;;;;-1.29;100.00;98422.44;4995983;28;20770;-69
2024/01/31 07:25:48;;;;;;;32.60;19.27;;;;;;;-1.18;100.00;98435.75;5003260;28;20038;-69
2024/01/31 07:28:14;;;;;;;32.35;19.70;;;;;;;-1.25;100.00;98437.81;4997039;28;20042;-68
2024/01/31 07:30:39;;;;;;;34.20;20.83;;;;;;;-1.28;100.00;98424.84;5001762;28;20435;-69
2024/01/31 07:33:04;;;;;;;47.47;23.75;;;;;;;-1.26;100.00;98430.81;4996259;28;20042;-69
2024/01/31 07:35:30;;;;;;;38.45;24.67;;;;;;;-1.13;100.00;98434.19;5001855;28;20073;-69
2024/01/31 07:37:55;;;;;;;36.90;21.08;;;;;;;-1.11;100.00;98430.22;5003304;28;20066;-68
2024/01/31 07:40:20;;;;;;;35.83;21.40;;;;;;;-1.09;100.00;98430.78;4998689;28;20076;-68
2024/01/31 07:42:46;;;;;;;33.90;20.55;;;;;;;-1.48;100.00;98432.63;5001391;28;20038;-68
2024/01/31 07:45:11;;;;;;;38.42;24.55;;;;;;;-1.50;100.00;98435.56;4996310;28;20072;-68
2024/01/31 07:47:38;;;;;;;42.03;23.02;;;;;;;-1.47;100.00;98436.97;5001105;28;20135;-67
2024/01/31 07:50:07;;;;;;;71.10;37.80;;;;;;;-1.48;100.00;98429.94;4994386;28;20092;-69
2024/01/31 07:52:32;;;;;;;77.82;39.08;;;;;;;-1.35;100.00;98437.69;5001454;28;20042;-68
2024/01/31 07:54:58;;;;;;;58.25;32.22;;;;;;;-1.43;100.00;98438.88;5011764;23;20065;-71
2024/01/31 07:57:24;;;;;;;54.50;28.02;;;;;;;-1.37;100.00;98432.56;4980420;28;20046;-72
2024/01/31 07:59:49;;;;;;;52.50;25.98;;;;;;;-1.22;100.00;98437.31;5000360;28;20111;-71
2024/01/31 08:02:15;;;;;;;54.88;26.92;;;;;;;-0.84;100.00;98422.22;5000839;28;20077;-71
2024/01/31 08:04:41;;;;;;;62.63;26.30;;;;;;;-0.49;100.00;98426.38;4993553;28;20050;-70
2024/01/31 08:07:06;;;;;;;79.35;30.92;;;;;;;-0.59;100.00;98428.97;4976308;28;20600;-71
2024/01/31 08:09:32;;;;;;;54.63;28.15;;;;;;;-0.52;100.00;98421.53;4978977;28;20054;-72
2024/01/31 08:11:57;;;;;;;127.63;29.60;;;;;;;-0.57;100.00;98424.16;4988624;28;20046;-71
2024/01/31 08:14:22;;;;;;;153.98;38.58;;;;;;;-0.60;100.00;98430.03;4976044;28;20786;-71
2024/01/31 08:16:51;;;;;;;146.20;45.30;;;;;;;-0.55;100.00;98423.91;4979981;28;20046;-72
2024/01/31 08:19:16;;;;;;;86.80;37.05;;;;;;;-0.32;100.00;98422.81;4975724;28;20413;-72
2024/01/31 08:21:42;;;;;;;85.30;31.20;;;;;;;-0.13;100.00;98420.56;4976932;28;20175;-72
2024/01/31 08:24:07;;;;;;;58.42;29.40;;;;;;;0.14;100.00;98425.94;4974686;28;20038;-71
2024/01/31 08:26:32;;;;;;;49.22;25.98;;;;;;;0.41;100.00;98423.19;4989101;28;20065;-70
2024/01/31 08:28:58;;;;;;;61.33;27.58;;;;;;;0.67;100.00;98424.19;4988634;28;20042;-70
2024/01/31 08:31:23;;;;;;;45.75;26.38;;;;;;;0.86;100.00;98426.47;4967670;28;20057;-71
2024/01/31 08:33:48;;;;;;;120.50;69.45;;;;;;;1.05;100.00;98426.84;4981135;28;20416;-71
2024/01/31 08:36:14;;;;;;;52.45;27.35;;;;;;;1.15;100.00;98418.78;4975379;28;20727;-71
2024/01/31 08:38:43;;;;;;;50.78;26.33;;;;;;;1.28;100.00;98418.31;4980212;28;20042;-70
2024/01/31 08:41:11;;;;;;;44.67;23.17;;;;;;;1.40;100.00;98418.06;4974874;28;20125;-71
2024/01/31 08:43:36;;;;;;;38.50;22.08;;;;;;;1.53;100.00;98422.16;4978847;28;20812;-71
2024/01/31 08:46:02;;;;;;;32.75;20.08;;;;;;;1.62;100.00;98417.06;4978034;28;20050;-70
2024/01/31 08:48:27;;;;;;;36.15;18.55;;;;;;;1.77;100.00;98411.72;4977917;28;20208;-70
2024/01/31 08:50:53;;;;;;;32.80;18.10;;;;;;;1.83;100.00;98399.00;4980781;28;20053;-69
2024/01/31 08:53:18;;;;;;;34.30;18.23;;;;;;;1.81;100.00;98395.78;4975020;28;20042;-70
2024/01/31 08:55:44;;;;;;;26.98;16.17;;;;;;;1.87;100.00;98392.00;4979449;28;20046;-72
2024/01/31 08:58:09;;;;;;;30.02;17.77;;;;;;;1.78;100.00;98385.50;5000246;28;20536;-72
2024/01/31 09:00:35;;;;;;;40.30;19.33;;;;;;;1.91;100.00;98387.69;4980135;28;20501;-73
2024/01/31 09:03:00;;;;;;;33.45;18.05;;;;;;;1.98;100.00;98385.53;4980019;28;20051;-71
2024/01/31 09:05:26;;;;;;;30.27;17.48;;;;;;;2.12;100.00;98383.09;4972851;28;20138;-72
2024/01/31 09:07:51;;;;;;;74.32;17.73;;;;;;;2.14;100.00;98386.31;4980303;28;20470;-71
2024/01/31 09:10:16;;;;;;;127.78;22.67;;;;;;;1.33;100.00;98380.53;4969682;28;20074;-73
2024/01/31 09:12:42;;;;;;;60.00;20.70;;;;;;;0.99;100.00;98382.84;4978063;28;20042;-72
2024/01/31 09:15:08;;;;;;;176.60;28.75;;;;;;;0.43;100.00;98382.50;4980939;28;20046;-72
2024/01/31 09:17:34;;;;;;;168.95;31.63;;;;;;;0.13;100.00;98397.38;4989061;28;20050;-72
2024/01/31 09:20:00;;;;;;;160.68;42.35;;;;;;;0.08;100.00;98400.03;4980470;28;20047;-71
2024/01/31 09:22:25;;;;;;;136.60;31.02;;;;;;;0.23;100.00;98397.44;4975846;28;20129;-73
2024/01/31 09:24:51;;;;;;;67.68;21.80;;;;;;;0.51;100.00;98401.69;4980059;28;20070;-73
2024/01/31 09:27:19;;;;;;;159.82;22.67;;;;;;;0.66;100.00;98400.19;4970846;28;20382;-73
2024/01/31 09:29:46;;;;;;;64.63;22.38;;;;;;;0.94;100.00;98405.19;4972500;28;20138;-72
2024/01/31 09:32:11;;;;;;;33.08;19.77;;;;;;;1.29;100.00;98398.31;4956347;28;20100;-73
2024/01/31 09:34:36;;;;;;;114.32;26.63;;;;;;;1.37;100.00;98393.50;4979543;28;20046;-73
2024/01/31 09:37:02;;;;;;;46.70;23.08;;;;;;;1.59;100.00;98396.00;4977983;28;20113;-72
2024/01/31 09:39:30;;;;;;;85.40;24.63;;;;;;;1.93;100.00;98399.03;4976537;28;20042;-73
2024/01/31 09:41:55;;;;;;;38.03;20.38;;;;;;;1.94;100.00;98397.94;4977822;28;20088;-73
2024/01/31 09:44:21;;;;;;;41.85;20.35;;;;;;;2.16;100.00;98381.50;4982902;28;20612;-71
2024/01/31 09:46:51;;;;;;;28.88;18.42;;;;;;;2.37;100.00;98382.28;4979021;28;20048;-72
2024/01/31 09:49:17;;;;;;;66.13;18.83;;;;;;;2.32;100.00;98381.47;4984210;28;20042;-73
2024/01/31 09:51:42;;;;;;;48.35;17.13;;;;;;;2.49;100.00;98373.88;4980017;28;20575;-73
2024/01/31 09:54:08;;;;;;;24.45;16.88;;;;;;;2.69;100.00;98370.34;4982540;28;20038;-72
2024/01/31 09:56:34;;;;;;;52.83;15.77;;;;;;;2.34;100.00;98361.19;4979441;28;20042;-72
2024/01/31 09:58:59;;;;;;;24.02;15.60;;;;;;;2.56;100.00;98360.91;4985308;28;20145;-72
2024/01/31 10:01:26;;;;;;;41.03;16.85;;;;;;;2.44;100.00;98358.47;4965996;28;20046;-70
2024/01/31 10:03:52;;;;;;;39.55;13.70;;;;;;;1.77;100.00;98348.78;4978650;28;20129;-71
2024/01/31 10:06:19;;;;;;;43.30;14.15;;;;;;;2.08;100.00;98344.19;4974443;28;20165;-70
2024/01/31 10:08:46;;;;;;;40.42;26.27;;;;;;;1.83;100.00;98353.09;4982074;28;20047;-72
2024/01/31 10:11:11;;;;;;;25.58;17.58;;;;;;;2.31;100.00;98359.03;4981649;28;20558;-71
2024/01/31 10:13:37;;;;;;;26.30;16.23;;;;;;;3.11;100.00;98365.59;4986948;28;20046;-72
2024/01/31 10:16:02;;;;;;;22.67;15.02;;;;;;;3.82;100.00;98362.50;4984278;28;20707;-69
2024/01/31 10:18:28;;;;;;;21.40;14.48;;;;;;;4.16;100.00;98358.19;4977508;28;20050;-71
2024/01/31 10:20:55;;;;;;;16.67;12.02;;;;;;;4.34;100.00;98348.53;4979880;28;20428;-71
2024/01/31 10:23:20;;;;;;;14.70;10.90;;;;;;;4.53;100.00;98346.72;4973194;28;20053;-72
2024/01/31 10:25:46;;;;;;;13.30;10.73;;;;;;;4.42;100.00;98339.78;4979188;28;20133;-73
2024/01/31 10:28:18;;;;;;;16.48;11.23;;;;;;;4.67;100.00;98335.19;4964836;28;20046;-71
2024/01/31 10:30:44;;;;;;;12.32;10.35;;;;;;;4.79;100.00;98322.03;5000085;28;20893;-71
2024/01/31 10:33:11;;;;;;;24.48;12.45;;;;;;;4.98;100.00;98327.50;4976364;28;20466;-72
2024/01/31 10:35:37;;;;;;;14.45;10.75;;;;;;;5.41;100.00;98330.22;4985636;28;20049;-74
2024/01/31 10:38:05;;;;;;;13.13;10.45;;;;;;;5.47;100.00;98334.47;4974092;28;20046;-71
2024/01/31 10:40:33;;;;;;;14.07;11.25;;;;;;;5.23;100.00;98325.59;4982061;28;20042;-73
2024/01/31 10:42:59;;;;;;;13.68;11.20;;;;;;;6.05;100.00;98327.94;4983378;28;20050;-73
2024/01/31 10:45:25;;;;;;;15.10;11.68;;;;;;;6.40;100.00;98320.28;4978140;28;20429;-73
2024/01/31 10:47:50;;;;;;;15.45;11.13;;;;;;;6.08;100.00;98321.91;4980899;28;20046;-73
2024/01/31 10:50:16;;;;;;;18.23;11.38;;;;;;;6.10;100.00;98313.44;4976989;28;20039;-73
2024/01/31 10:52:43;;;;;;;14.48;11.02;;;;;;;6.11;100.00;98315.88;4982747;28;20060;-73
2024/01/31 10:55:09;;;;;;;15.35;11.95;;;;;;;6.06;100.00;98321.38;4976835;28;20138;-73
2024/01/31 10:57:37;;;;;;;14.63;10.65;;;;;;;5.80;100.00;98317.41;4990132;28;20056;-72
2024/01/31 11:00:08;;;;;;;13.73;11.02;;;;;;;5.86;100.00;98325.22;4987071;28;20513;-70
2024/01/31 11:02:33;;;;;;;14.82;11.48;;;;;;;6.15;100.00;98315.28;4982772;28;20062;-73
2024/01/31 11:05:04;;;;;;;15.15;12.02;;;;;;;6.09;100.00;98307.19;4988151;28;20092;-72